createdAt,value
2019-03-04T00:01:31.189Z,99040.48
2019-03-04T00:04:01.197Z,99038.13
2019-03-04T00:06:31.469Z,99034.36
2019-03-04T00:09:01.543Z,99027.66
2019-03-04T00:11:33.220Z,99031.11
2019-03-04T00:14:03.250Z,99032.02
2019-03-04T00:16:33.591Z,99021.35
2019-03-04T00:19:04.807Z,99020.89
2019-03-04T00:21:34.824Z,99017.83
2019-03-04T00:24:05.512Z,99023.36
2019-03-04T00:26:35.533Z,99016.08
2019-03-04T00:29:05.559Z,99018.36
2019-03-04T00:31:35.811Z,99017.17
2019-03-04T00:34:05.907Z,99008.97
2019-03-04T00:36:35.925Z,99006.89
2019-03-04T00:39:10.458Z,99007.34
2019-03-04T00:41:40.846Z,99004.98
2019-03-04T00:44:11.110Z,98994.11
2019-03-04T00:46:41.274Z,98994.05
2019-03-04T00:49:11.571Z,98992.36
2019-03-04T00:51:41.671Z,98993.45
2019-03-04T00:54:11.661Z,98986.87
2019-03-04T00:56:41.940Z,98980.29
2019-03-04T00:59:12.267Z,98977.89
2019-03-04T01:01:42.354Z,98970.21
2019-03-04T01:04:13.063Z,98981.55
2019-03-04T01:06:43.194Z,98978.16
2019-03-04T01:09:15.390Z,98983.03
2019-03-04T01:11:45.642Z,98972.54
2019-03-04T01:14:15.710Z,98971.70
2019-03-04T01:16:45.963Z,98961.14
2019-03-04T01:19:16.290Z,98966.20
2019-03-04T01:21:46.632Z,98960.36
2019-03-04T01:24:16.982Z,98966.48
2019-03-04T01:26:47.130Z,98955.53
2019-03-04T01:29:18.546Z,98960.36
2019-03-04T01:31:48.795Z,98959.30
2019-03-04T01:34:19.222Z,98944.91
2019-03-04T01:36:49.566Z,98952.02
2019-03-04T01:39:20.804Z,98948.87
2019-03-04T01:41:51.126Z,98952.27
2019-03-04T01:44:21.454Z,98945.36
2019-03-04T01:46:51.851Z,98935.78
2019-03-04T01:49:22.172Z,98940.92
2019-03-04T01:51:52.243Z,98938.45
2019-03-04T01:54:22.275Z,98931.17
2019-03-04T01:56:52.531Z,98934.63
2019-03-04T01:59:22.863Z,98930.78
2019-03-04T02:01:52.976Z,98929.94
2019-03-04T02:04:23.286Z,98918.98
2019-03-04T02:06:53.373Z,98928.03
2019-03-04T02:09:23.479Z,98929.48
2019-03-04T02:11:53.739Z,98921.52
2019-03-04T02:14:23.813Z,98921.66
2019-03-04T02:16:55.093Z,98918.39
2019-03-04T02:19:25.182Z,98914.77
2019-03-04T02:21:55.428Z,98924.06
2019-03-04T02:24:26.078Z,98914.55
2019-03-04T02:26:56.489Z,98906.80
2019-03-04T02:29:26.579Z,98915.01
2019-03-04T02:31:56.864Z,98909.94
2019-03-04T02:34:27.266Z,98904.48
2019-03-04T02:36:57.600Z,98898.88
2019-03-04T02:39:27.934Z,98898.56
2019-03-04T02:41:58.280Z,98888.61
2019-03-04T02:44:28.390Z,98882.62
2019-03-04T02:46:58.392Z,98878.85
2019-03-04T02:49:28.659Z,98876.78
2019-03-04T02:51:58.982Z,98873.78
2019-03-04T02:54:29.076Z,98868.05
2019-03-04T02:56:59.389Z,98874.03
2019-03-04T02:59:29.736Z,98871.42
2019-03-04T03:02:00.084Z,98868.96
2019-03-04T03:04:30.402Z,98871.42
2019-03-04T03:07:00.468Z,98865.37
2019-03-04T03:09:31.399Z,98870.66
2019-03-04T03:12:01.461Z,98876.11
2019-03-04T03:14:31.735Z,98869.20
2019-03-04T03:17:02.069Z,98871.22
2019-03-04T03:19:32.524Z,98877.41
2019-03-04T03:22:02.862Z,98871.04
2019-03-04T03:24:33.203Z,98864.52
2019-03-04T03:27:03.568Z,98869.73
2019-03-04T03:29:33.663Z,98861.14
2019-03-04T03:32:03.933Z,98864.98
2019-03-04T03:34:34.307Z,98857.63
2019-03-04T03:37:04.640Z,98858.02
2019-03-04T03:39:34.957Z,98860.55
2019-03-04T03:42:05.474Z,98859.84
2019-03-04T03:44:35.834Z,98853.79
2019-03-04T03:47:06.162Z,98855.55
2019-03-04T03:49:36.481Z,98854.11
2019-03-04T03:52:06.823Z,98855.27
2019-03-04T03:54:37.207Z,98838.41
2019-03-04T03:57:07.298Z,98834.19
2019-03-04T03:59:37.558Z,98833.13
2019-03-04T04:02:07.909Z,98827.28
2019-03-04T04:04:38.333Z,98830.80
2019-03-04T04:07:08.645Z,98835.17
2019-03-04T04:09:38.730Z,98836.02
2019-03-04T04:12:08.990Z,98829.67
2019-03-04T04:14:39.317Z,98832.73
2019-03-04T04:17:10.912Z,98831.72
2019-03-04T04:19:41.242Z,98826.13
2019-03-04T04:22:11.432Z,98825.66
2019-03-04T04:24:41.438Z,98815.48
2019-03-04T04:27:11.453Z,98816.48
2019-03-04T04:29:41.820Z,98819.75
2019-03-04T04:32:11.929Z,98822.75
2019-03-04T04:34:42.194Z,98827.57
2019-03-04T04:37:12.250Z,98823.28
2019-03-04T04:39:42.304Z,98817.47
2019-03-04T04:42:12.303Z,98818.84
2019-03-04T04:44:42.590Z,98821.16
2019-03-04T04:47:12.909Z,98811.52
2019-03-04T04:49:42.972Z,98818.94
2019-03-04T04:52:13.259Z,98822.14
2019-03-04T04:54:43.576Z,98824.83
2019-03-04T04:57:13.659Z,98821.62
2019-03-04T04:59:43.914Z,98823.62
2019-03-04T05:02:16.194Z,98813.27
2019-03-04T05:04:45.998Z,98821.09
2019-03-04T05:07:16.352Z,98818.17
2019-03-04T05:09:46.408Z,98804.23
2019-03-04T05:12:16.409Z,98807.67
2019-03-04T05:14:46.696Z,98810.59
2019-03-04T05:17:16.782Z,98804.30
2019-03-04T05:19:46.776Z,98804.37
2019-03-04T05:22:16.807Z,98798.88
2019-03-04T05:24:47.061Z,98797.64
2019-03-04T05:27:17.401Z,98795.50
2019-03-04T05:29:47.752Z,98786.52
2019-03-04T05:32:17.843Z,98784.69
2019-03-04T05:34:48.304Z,98785.08
2019-03-04T05:37:18.587Z,98778.56
2019-03-04T05:39:48.664Z,98776.88
2019-03-04T05:42:18.713Z,98776.73
2019-03-04T05:44:49.029Z,98769.69
2019-03-04T05:47:19.112Z,98758.20
2019-03-04T05:49:49.136Z,98741.66
2019-03-04T05:52:19.392Z,98747.55
2019-03-04T05:54:49.537Z,98758.44
2019-03-04T05:57:19.529Z,98759.20
2019-03-04T05:59:49.856Z,98767.33
2019-03-04T06:02:19.963Z,98769.72
2019-03-04T06:04:49.958Z,98781.66
2019-03-04T06:07:21.610Z,98772.09
2019-03-04T06:09:51.807Z,98763.73
2019-03-04T06:12:22.089Z,98770.48
2019-03-04T06:14:52.451Z,98770.23
2019-03-04T06:17:22.500Z,98776.78
2019-03-04T06:19:52.807Z,98776.41
2019-03-04T06:22:22.899Z,98779.78
2019-03-04T06:24:52.894Z,98782.01
2019-03-04T06:27:22.887Z,98779.41
2019-03-04T06:29:53.024Z,98780.09
2019-03-04T06:32:23.275Z,98775.88
2019-03-04T06:34:53.656Z,98782.32
2019-03-04T06:37:23.969Z,98788.22
2019-03-04T06:39:54.092Z,98795.86
2019-03-04T06:42:24.083Z,98791.29
2019-03-04T06:44:54.138Z,98794.44
2019-03-04T06:47:24.395Z,98797.05
2019-03-04T06:49:54.482Z,98807.16
2019-03-04T06:52:26.056Z,98793.67
2019-03-04T06:55:03.679Z,98787.45
2019-03-04T06:57:34.073Z,98789.80
2019-03-04T07:00:07.394Z,98797.31
2019-03-04T07:02:45.986Z,98793.01
2019-03-04T07:05:50.356Z,98798.52
2019-03-04T07:08:40.558Z,98795.20
2019-03-04T07:11:10.911Z,98795.23
2019-03-04T07:13:41.254Z,98792.53
2019-03-04T07:16:11.465Z,98786.69
2019-03-04T07:18:41.782Z,98783.91
2019-03-04T07:21:11.890Z,98787.27
2019-03-04T07:23:42.193Z,98788.02
2019-03-04T07:26:12.539Z,98791.83
2019-03-04T07:28:42.851Z,98787.55
2019-03-04T07:31:13.257Z,98787.13
2019-03-04T07:33:43.351Z,98782.71
2019-03-04T07:36:13.348Z,98780.39
2019-03-04T07:38:51.619Z,98782.13
2019-03-04T07:41:21.662Z,98777.19
2019-03-04T07:43:53.335Z,98777.11
2019-03-04T07:46:23.354Z,98770.41
2019-03-04T07:48:53.354Z,98759.87
2019-03-04T07:51:25.805Z,98763.73
2019-03-04T07:53:57.527Z,98761.15
2019-03-04T07:56:27.545Z,98749.24
2019-03-04T07:58:57.570Z,98746.67
2019-03-04T08:01:27.867Z,98741.45
2019-03-04T08:03:57.917Z,98731.48
2019-03-04T08:06:27.920Z,98732.92
2019-03-04T08:09:20.253Z,98723.45
2019-03-04T08:12:03.492Z,98738.44
2019-03-04T08:14:33.850Z,98725.59
2019-03-04T08:17:05.474Z,98730.41
2019-03-04T08:19:35.549Z,98728.85
2019-03-04T08:22:05.632Z,98729.91
2019-03-04T08:24:35.632Z,98742.84
2019-03-04T08:27:05.684Z,98739.52
2019-03-04T08:29:37.129Z,98724.92
2019-03-04T08:32:07.107Z,98731.11
2019-03-04T08:34:39.460Z,98725.09
2019-03-04T08:37:09.235Z,98739.91
2019-03-04T08:39:40.671Z,98747.12
2019-03-04T08:42:11.061Z,98743.27
2019-03-04T08:44:41.463Z,98744.27
2019-03-04T08:47:13.533Z,98729.30
2019-03-04T08:49:43.528Z,98721.22
2019-03-04T08:52:13.897Z,98728.63
2019-03-04T08:54:44.219Z,98735.49
2019-03-04T08:57:14.651Z,98733.66
2019-03-04T08:59:44.734Z,98720.48
2019-03-04T09:02:18.292Z,98712.30
2019-03-04T09:04:48.468Z,98709.06
2019-03-04T09:07:18.736Z,98703.19
2019-03-04T09:09:49.081Z,98707.67
2019-03-04T09:12:20.597Z,98704.66
2019-03-04T09:14:53.082Z,98686.82
2019-03-04T09:17:25.227Z,98692.95
2019-03-04T09:19:55.525Z,98682.90
2019-03-04T09:22:27.332Z,98690.39
2019-03-04T09:24:57.323Z,98666.69
2019-03-04T09:27:27.604Z,98661.25
2019-03-04T09:29:57.694Z,98670.01
2019-03-04T09:32:31.181Z,98659.80
2019-03-04T09:35:02.182Z,98662.34
2019-03-04T09:37:32.262Z,98661.77
2019-03-04T09:40:06.742Z,98658.17
2019-03-04T09:42:38.515Z,98643.20
2019-03-04T09:45:15.544Z,98643.31
2019-03-04T09:47:45.882Z,98629.15
2019-03-04T09:50:23.497Z,98638.88
2019-03-04T09:52:53.573Z,98627.95
2019-03-04T09:55:23.773Z,98630.20
2019-03-04T09:57:53.823Z,98631.89
2019-03-04T10:00:33.637Z,98622.03
2019-03-04T10:03:43.694Z,98615.27
2019-03-04T10:06:42.452Z,98596.02
2019-03-04T10:09:40.785Z,98599.30
2019-03-04T10:12:21.670Z,98586.48
2019-03-04T10:15:24.655Z,98570.95
2019-03-04T10:18:25.269Z,98548.45
2019-03-04T10:21:24.263Z,98552.84
2019-03-04T10:24:15.556Z,98516.11
2019-03-04T10:26:48.829Z,98524.45
2019-03-04T10:29:26.335Z,98536.83
2019-03-04T10:32:11.827Z,98523.75
2019-03-04T10:35:13.257Z,98491.92
2019-03-04T10:38:22.345Z,98493.78
2019-03-04T10:41:00.609Z,98487.48
2019-03-04T10:43:34.909Z,98501.98
2019-03-04T10:46:18.047Z,98494.11
2019-03-04T10:48:48.336Z,98489.46
2019-03-04T10:51:19.660Z,98483.80
2019-03-04T10:53:51.439Z,98477.75
2019-03-04T10:56:24.735Z,98478.98
2019-03-04T10:58:54.825Z,98471.11
2019-03-04T11:01:30.316Z,98477.54
2019-03-04T11:04:00.611Z,98478.08
2019-03-04T11:06:31.659Z,98474.10
2019-03-04T11:09:02.167Z,98472.59
2019-03-04T11:11:33.872Z,98467.88
2019-03-04T11:14:05.373Z,98460.24
2019-03-04T11:16:35.535Z,98445.77
2019-03-04T11:19:09.718Z,98444.59
2019-03-04T11:21:39.782Z,98423.30
2019-03-04T11:24:11.440Z,98414.33
2019-03-04T11:26:44.139Z,98412.59
2019-03-04T11:29:15.910Z,98408.41
2019-03-04T11:31:45.970Z,98397.63
2019-03-04T11:34:16.233Z,98403.77
2019-03-04T11:36:49.475Z,98391.94
2019-03-04T11:39:25.611Z,98396.17
2019-03-04T11:41:55.612Z,98400.44
2019-03-04T11:44:27.219Z,98401.69
2019-03-04T11:46:57.571Z,98388.13
2019-03-04T11:49:27.802Z,98399.94
2019-03-04T11:51:58.241Z,98403.09
2019-03-04T11:54:28.305Z,98407.20
2019-03-04T11:56:58.567Z,98388.20
2019-03-04T11:59:28.640Z,98402.23
2019-03-04T12:02:00.605Z,98394.27
2019-03-04T12:04:30.623Z,98389.75
2019-03-04T12:07:01.078Z,98386.53
2019-03-04T12:09:31.508Z,98388.52
2019-03-04T12:12:01.848Z,98375.94
2019-03-04T12:14:32.177Z,98368.13
2019-03-04T12:17:02.581Z,98380.48
2019-03-04T12:19:33.366Z,98370.77
2019-03-04T12:22:03.639Z,98369.36
2019-03-04T12:24:35.379Z,98360.56
2019-03-04T12:27:05.462Z,98358.00
2019-03-04T12:29:35.717Z,98360.02
2019-03-04T12:32:07.457Z,98362.23
2019-03-04T12:34:38.972Z,98362.84
2019-03-04T12:37:08.970Z,98351.16
2019-03-04T12:39:39.322Z,98356.30
2019-03-04T12:42:09.687Z,98339.07
2019-03-04T12:53:17.709Z,98320.54
2019-03-04T12:55:47.826Z,98312.09
2019-03-04T12:58:18.087Z,98288.33
2019-03-04T13:00:48.434Z,98284.35
2019-03-04T13:03:21.918Z,98279.73
2019-03-04T13:05:52.282Z,98266.44
2019-03-04T13:08:22.345Z,98281.95
2019-03-04T13:10:52.633Z,98265.97
2019-03-04T13:13:22.724Z,98259.05
2019-03-04T13:15:52.720Z,98277.41
2019-03-04T13:18:22.998Z,98271.26
2019-03-04T13:20:53.070Z,98261.20
2019-03-04T13:23:25.172Z,98258.22
2019-03-04T13:25:55.581Z,98253.30
2019-03-04T13:28:30.875Z,98255.28
2019-03-04T13:31:01.242Z,98242.58
2019-03-04T13:33:31.346Z,98250.39
2019-03-04T13:36:01.435Z,98248.06
2019-03-04T13:38:31.664Z,98237.34
2019-03-04T13:41:01.730Z,98241.05
2019-03-04T13:43:33.726Z,98241.95
2019-03-04T13:46:05.534Z,98239.81
2019-03-04T13:48:41.486Z,98238.41
2019-03-04T13:51:11.519Z,98243.65
2019-03-04T13:53:41.779Z,98243.86
2019-03-04T13:56:12.300Z,98244.48
2019-03-04T13:58:43.337Z,98233.84
2019-03-04T14:01:13.619Z,98222.11
2019-03-04T14:03:45.128Z,98232.87
2019-03-04T14:06:17.064Z,98231.28
2019-03-04T14:08:48.623Z,98230.03
2019-03-04T14:11:19.232Z,98231.91
2019-03-04T14:13:49.551Z,98224.69
2019-03-04T14:16:19.894Z,98213.43
2019-03-04T14:18:50.113Z,98219.48
2019-03-04T14:21:21.979Z,98218.78
2019-03-04T14:23:52.303Z,98220.38
2019-03-04T14:26:22.655Z,98222.18
2019-03-04T14:28:53.891Z,98223.23
2019-03-04T14:31:23.919Z,98210.03
2019-03-04T14:33:54.264Z,98223.71
2019-03-04T14:36:24.591Z,98225.23
2019-03-04T14:38:55.448Z,98222.17
2019-03-04T14:41:25.739Z,98228.30
2019-03-04T14:43:56.095Z,98223.36
2019-03-04T14:46:26.402Z,98220.02
2019-03-04T14:48:56.469Z,98226.12
2019-03-04T14:51:26.808Z,98228.25
2019-03-04T14:53:57.138Z,98238.01
2019-03-04T14:56:27.459Z,98222.11
2019-03-04T14:59:10.210Z,98223.03
2019-03-04T15:01:29.708Z,98221.76
2019-03-04T15:03:59.717Z,98221.49
2019-03-04T15:06:30.018Z,98211.16
2019-03-04T15:09:00.352Z,98214.17
2019-03-04T15:11:31.949Z,98209.66
2019-03-04T15:14:02.034Z,98215.38
2019-03-04T15:16:32.302Z,98209.84
2019-03-04T15:19:02.411Z,98214.59
2019-03-04T15:21:34.523Z,98203.38
2019-03-04T15:24:04.837Z,98200.66
2019-03-04T15:26:42.945Z,98204.30
2019-03-04T15:29:07.333Z,98207.20
2019-03-04T15:31:37.379Z,98199.51
2019-03-04T15:34:07.534Z,98205.55
2019-03-04T15:36:37.537Z,98196.11
2019-03-04T15:39:09.446Z,98187.09
2019-03-04T15:41:40.399Z,98186.42
2019-03-04T15:44:10.732Z,98179.40
2019-03-04T15:46:40.740Z,98185.63
2019-03-04T15:49:13.520Z,98177.41
2019-03-04T15:51:45.028Z,98171.31
2019-03-04T15:54:17.099Z,98171.44
2019-03-04T15:56:47.464Z,98166.30
2019-03-04T15:59:18.823Z,98166.30
2019-03-04T16:01:48.811Z,98165.47
2019-03-04T16:04:19.073Z,98147.11
2019-03-04T16:06:49.421Z,98117.45
2019-03-04T16:09:21.374Z,98092.36
2019-03-04T16:11:51.763Z,98091.66
2019-03-04T16:14:21.832Z,98090.60
2019-03-04T16:16:52.106Z,98081.05
2019-03-04T16:19:23.689Z,98088.20
2019-03-04T16:21:53.808Z,98091.80
2019-03-04T16:24:24.071Z,98094.78
2019-03-04T16:27:01.388Z,98101.36
2019-03-04T16:29:37.157Z,98097.41
2019-03-04T16:32:03.530Z,98097.41
2019-03-04T16:34:33.478Z,98088.72
2019-03-04T16:37:05.628Z,98080.89
2019-03-04T16:39:35.949Z,98066.72
2019-03-04T16:42:06.373Z,98072.50
2019-03-04T16:44:36.371Z,98067.52
2019-03-04T16:47:06.392Z,98065.53
2019-03-04T16:49:37.223Z,98068.51
2019-03-04T16:52:07.304Z,98066.61
2019-03-04T16:54:37.441Z,98063.66
2019-03-04T16:57:10.895Z,98049.70
2019-03-04T16:59:40.929Z,98045.44
2019-03-04T17:02:10.977Z,98045.36
2019-03-04T17:04:42.316Z,98043.69
2019-03-04T17:07:12.744Z,98040.73
2019-03-04T17:09:42.841Z,98047.24
2019-03-04T17:12:12.895Z,98047.63
2019-03-04T17:14:43.265Z,98051.70
2019-03-04T17:17:14.468Z,98061.95
2019-03-04T17:19:44.901Z,98068.98
2019-03-04T17:22:15.351Z,98068.98
2019-03-04T17:24:46.143Z,98071.26
2019-03-04T17:27:16.412Z,98069.60
2019-03-04T17:29:46.827Z,98064.34
2019-03-04T17:32:17.155Z,98056.84
2019-03-04T17:34:47.253Z,98055.09
2019-03-04T17:37:17.419Z,98049.84
2019-03-04T17:39:47.704Z,98053.55
2019-03-04T17:42:18.125Z,98055.45
2019-03-04T17:44:49.286Z,98056.41
2019-03-04T17:47:20.461Z,98050.33
2019-03-04T17:49:50.746Z,98049.95
2019-03-04T17:52:21.072Z,98046.97
2019-03-04T17:54:51.167Z,98050.80
2019-03-04T17:57:21.174Z,98039.34
2019-03-04T17:59:51.459Z,98037.31
2019-03-04T18:02:21.788Z,98038.14
2019-03-04T18:04:51.911Z,98042.04
2019-03-04T18:07:22.158Z,98037.27
2019-03-04T18:09:52.292Z,98044.17
2019-03-04T18:12:22.289Z,98045.95
2019-03-04T18:14:52.352Z,98047.39
2019-03-04T18:17:22.356Z,98041.30
2019-03-04T18:19:52.385Z,98043.67
2019-03-04T18:22:22.386Z,98036.38
2019-03-04T18:24:52.416Z,98038.05
2019-03-04T18:27:22.962Z,98034.56
2019-03-04T18:30:01.797Z,98039.22
2019-03-04T18:32:42.730Z,98034.61
2019-03-04T18:35:24.629Z,98043.59
2019-03-04T18:37:57.901Z,98037.02
2019-03-04T18:40:50.817Z,98032.30
2019-03-04T18:43:34.017Z,98030.50
2019-03-04T18:46:36.334Z,98024.53
2019-03-04T18:49:06.432Z,98028.13
2019-03-04T18:51:37.679Z,98027.59
2019-03-04T18:54:09.589Z,98032.92
2019-03-04T18:56:39.732Z,98032.78
2019-03-04T18:59:10.096Z,98032.27
2019-03-04T19:01:40.359Z,98028.58
2019-03-04T19:04:10.445Z,98036.92
2019-03-04T19:06:40.558Z,98031.05
2019-03-04T19:09:10.841Z,98034.55
2019-03-04T19:11:41.317Z,98022.36
2019-03-04T19:14:11.421Z,98014.58
2019-03-04T19:16:41.432Z,98024.97
2019-03-04T19:19:11.513Z,98003.81
2019-03-04T19:21:41.882Z,98013.46
2019-03-04T19:24:12.457Z,98010.93
2019-03-04T19:26:43.592Z,98010.73
2019-03-04T19:29:14.188Z,98014.48
2019-03-04T19:31:44.800Z,98013.72
2019-03-04T19:34:17.373Z,98019.39
2019-03-04T19:36:47.679Z,98020.48
2019-03-04T19:39:18.425Z,98012.95
2019-03-04T19:41:48.501Z,98015.99
2019-03-04T19:44:18.530Z,98021.34
2019-03-04T19:46:48.788Z,98015.58
2019-03-04T19:49:20.875Z,98012.24
2019-03-04T19:51:51.944Z,98008.05
2019-03-04T19:54:22.230Z,98011.63
2019-03-04T19:56:52.562Z,98010.58
2019-03-04T19:59:22.933Z,98008.33
2019-03-04T20:01:52.981Z,98008.20
2019-03-04T20:04:22.977Z,97999.97
2019-03-04T20:06:53.661Z,97994.48
2019-03-04T20:09:25.351Z,97984.61
2019-03-04T20:11:56.255Z,97992.39
2019-03-04T20:14:26.324Z,98001.14
2019-03-04T20:16:56.664Z,97996.04
2019-03-04T20:19:27.058Z,98003.92
2019-03-04T20:21:57.135Z,98000.23
2019-03-04T20:24:27.402Z,97998.85
2019-03-04T20:26:57.757Z,98001.14
2019-03-04T20:29:28.092Z,97990.41
2019-03-04T20:31:59.500Z,97999.86
2019-03-04T20:34:29.591Z,98014.91
2019-03-04T20:36:59.857Z,98016.70
2019-03-04T20:39:29.846Z,98019.45
2019-03-04T20:42:00.822Z,98023.77
2019-03-04T20:44:31.675Z,98014.81
2019-03-04T20:47:01.938Z,98011.71
2019-03-04T20:49:32.034Z,97999.65
2019-03-04T20:52:02.308Z,98014.57
2019-03-04T20:54:33.909Z,98026.63
2019-03-04T20:57:04.006Z,98029.26
2019-03-04T20:59:34.662Z,98040.48
2019-03-04T21:02:04.739Z,98031.53
2019-03-04T21:04:35.108Z,98041.44
2019-03-04T21:07:05.401Z,98045.98
2019-03-04T21:09:36.638Z,98041.72
2019-03-04T21:12:07.056Z,98040.73
2019-03-04T21:14:37.453Z,98044.11
2019-03-04T21:17:07.820Z,98040.30
2019-03-04T21:19:37.893Z,98044.35
2019-03-04T21:22:08.179Z,98043.04
2019-03-04T21:24:38.254Z,98048.66
2019-03-04T21:27:08.267Z,98049.48
2019-03-04T21:29:46.212Z,98054.98
2019-03-04T21:32:21.592Z,98046.27
2019-03-04T21:35:03.287Z,98033.63
2019-03-04T21:37:41.067Z,98043.29
2019-03-04T21:40:20.905Z,98041.87
2019-03-04T21:43:07.442Z,98037.34
2019-03-04T21:45:57.284Z,98039.12
2019-03-04T21:48:33.439Z,98037.11
2019-03-04T21:51:12.318Z,98042.71
2019-03-04T21:53:49.703Z,98049.63
2019-03-04T21:56:39.875Z,98048.44
2019-03-04T21:59:09.964Z,98051.81
2019-03-04T22:01:59.821Z,98050.02
2019-03-04T22:04:30.022Z,98056.09
2019-03-04T22:07:00.415Z,98052.03
2019-03-04T22:09:31.134Z,98053.58
2019-03-04T22:12:01.306Z,98051.21
2019-03-04T22:14:31.490Z,98053.94
2019-03-04T22:17:01.496Z,98051.80
2019-03-04T22:19:31.765Z,98051.53
2019-03-04T22:22:01.864Z,98056.17
2019-03-04T22:24:32.292Z,98057.01
2019-03-04T22:27:02.921Z,98053.66
2019-03-04T22:29:33.261Z,98049.84
2019-03-04T22:32:03.357Z,98044.23
2019-03-04T22:34:33.634Z,98057.70
2019-03-04T22:37:03.795Z,98048.66
2019-03-04T22:39:33.994Z,98052.00
2019-03-04T22:42:04.285Z,98054.02
2019-03-04T22:44:34.647Z,98056.14
2019-03-04T22:47:04.987Z,98061.04
2019-03-04T22:49:35.065Z,98059.83
2019-03-04T22:52:05.050Z,98054.90
2019-03-04T22:54:35.351Z,98062.45
2019-03-04T22:57:05.632Z,98055.38
2019-03-04T22:59:35.958Z,98065.62
2019-03-04T23:02:06.473Z,98061.80
2019-03-04T23:04:37.370Z,98061.31
2019-03-04T23:07:08.900Z,98073.95
2019-03-04T23:09:49.676Z,98062.67
2019-03-04T23:12:30.860Z,98071.84
2019-03-04T23:15:00.927Z,98053.86
2019-03-04T23:17:31.329Z,98061.40
2019-03-04T23:20:01.325Z,98066.03
2019-03-04T23:22:31.692Z,98058.65
2019-03-04T23:25:01.711Z,98058.83
2019-03-04T23:27:32.365Z,98065.98
2019-03-04T23:30:02.707Z,98078.94
2019-03-04T23:32:33.054Z,98080.09
2019-03-04T23:35:03.636Z,98087.14
2019-03-04T23:37:34.024Z,98092.74
2019-03-04T23:40:07.483Z,98079.59
2019-03-04T23:42:37.832Z,98085.61
2019-03-04T23:45:12.877Z,98092.93
2019-03-04T23:47:42.963Z,98119.98
2019-03-04T23:50:23.724Z,98123.18
2019-03-04T23:52:54.145Z,98124.48
2019-03-04T23:55:24.479Z,98133.52
2019-03-04T23:57:54.836Z,98144.14
